Time;durP1;ratioP1;P1;durP2;ratioP2;P2;SDS_P1;SDS_P2;PMS_P1;PMS_P2;Temp;Humidity;BMP_temperature;BMP_pressure;BME280_temperature;BME280_humidity;BME280_pressure;Samples;Min_cycle;Max_cycle;Signal;HPM_P1;HPM_P2
2022/10/07 00:01:47;;;;;;;0.75;0.75;;;;;;;12.39;100.00;101024.28;5007649;28;20588;-78
2022/10/07 00:04:14;;;;;;;1.65;0.77;;;;;;;12.37;100.00;101016.38;5014848;28;20036;-75
2022/10/07 00:06:39;;;;;;;1.42;0.85;;;;;;;12.38;100.00;101018.03;5025120;28;20029;-76
2022/10/07 00:09:05;;;;;;;2.30;0.73;;;;;;;12.35;100.00;101004.09;5025468;28;20525;-77
2022/10/07 00:11:31;;;;;;;5.78;1.02;;;;;;;12.47;100.00;100999.94;5020557;28;20059;-78
2022/10/07 00:13:59;;;;;;;3.38;0.93;;;;;;;12.64;100.00;101001.44;4986035;28;20103;-78
2022/10/07 00:16:33;;;;;;;2.08;0.65;;;;;;;12.71;100.00;100988.91;5025838;28;20431;-78
2022/10/07 00:19:01;;;;;;;2.22;0.80;;;;;;;12.70;100.00;101003.44;5036154;28;20044;-76
2022/10/07 00:21:30;;;;;;;0.70;0.57;;;;;;;12.50;100.00;100991.47;4993898;28;20037;-77
2022/10/07 00:23:57;;;;;;;5.05;1.08;;;;;;;12.44;100.00;100967.94;5028012;28;20449;-78
2022/10/07 00:26:25;;;;;;;4.22;1.15;;;;;;;12.29;100.00;100949.88;5010967;28;20037;-76
2022/10/07 00:28:51;;;;;;;3.25;0.80;;;;;;;12.43;100.00;100982.44;5020651;28;20112;-76
2022/10/07 00:31:25;;;;;;;1.33;0.60;;;;;;;12.48;100.00;100982.72;5011235;28;20172;-76
2022/10/07 00:33:51;;;;;;;1.90;0.70;;;;;;;12.51;100.00;100976.97;5009162;28;20037;-77
2022/10/07 00:36:22;;;;;;;0.95;0.40;;;;;;;12.55;100.00;100967.50;4995055;28;20394;-77
2022/10/07 00:38:54;;;;;;;3.47;0.93;;;;;;;12.60;100.00;100962.41;5014643;28;20389;-78
2022/10/07 00:41:35;;;;;;;0.50;0.50;;;;;;;12.63;100.00;100961.19;5006847;28;20041;-78
2022/10/07 00:44:34;;;;;;;2.83;1.00;;;;;;;12.64;100.00;100965.53;5008707;28;20382;-78
2022/10/07 00:47:23;;;;;;;0.60;0.60;;;;;;;12.57;100.00;100960.06;5016658;28;20530;-79
2022/10/07 00:50:07;;;;;;;0.60;0.60;;;;;;;12.46;100.00;100960.50;5020942;28;20048;-77
2022/10/07 00:52:46;;;;;;;1.90;0.80;;;;;;;12.42;100.00;100949.25;5017206;28;20037;-78
2022/10/07 00:55:16;;;;;;;2.35;0.55;;;;;;;12.43;100.00;100940.13;5018800;28;20039;-77
2022/10/07 00:57:42;;;;;;;5.30;1.02;;;;;;;12.47;100.00;100944.13;4987518;28;20546;-77
2022/10/07 01:00:08;;;;;;;7.25;1.58;;;;;;;12.53;100.00;100945.25;5004499;28;20113;-77
2022/10/07 01:02:34;;;;;;;4.10;0.80;;;;;;;12.61;100.00;100944.34;5007998;28;20028;-78
2022/10/07 01:05:03;;;;;;;1.13;0.70;;;;;;;12.63;100.00;100950.41;4986222;28;20026;-78
2022/10/07 01:07:29;;;;;;;0.57;0.57;;;;;;;12.53;100.00;100950.66;4987829;28;20036;-77
2022/10/07 01:09:58;;;;;;;0.75;0.60;;;;;;;12.45;100.00;100937.25;5025564;28;20049;-78
2022/10/07 01:12:50;;;;;;;2.80;0.60;;;;;;;12.44;100.00;100920.25;5022583;28;20475;-77
2022/10/07 01:15:34;;;;;;;3.90;1.15;;;;;;;12.41;100.00;100920.63;5039404;28;20506;-77
2022/10/07 01:18:06;;;;;;;0.55;0.40;;;;;;;12.43;100.00;100912.31;5023127;28;20062;-78
2022/10/07 01:20:34;;;;;;;3.78;0.98;;;;;;;12.44;100.00;100919.41;5020518;28;20105;-78
2022/10/07 01:23:08;;;;;;;1.20;0.90;;;;;;;12.39;100.00;100897.56;5008291;28;20022;-78
2022/10/07 01:26:03;;;;;;;1.42;0.70;;;;;;;12.40;100.00;100912.69;5022429;28;20041;-77
2022/10/07 01:28:40;;;;;;;2.38;1.08;;;;;;;12.38;100.00;100904.78;5009304;28;20197;-78
2022/10/07 01:31:09;;;;;;;0.40;0.40;;;;;;;12.34;100.00;100878.38;5007792;28;20029;-78
2022/10/07 01:33:35;;;;;;;2.53;0.60;;;;;;;12.40;100.00;100897.34;5026314;28;20037;-78
2022/10/07 01:36:11;;;;;;;0.40;0.40;;;;;;;12.44;100.00;100884.34;4986973;28;20056;-78
2022/10/07 01:38:40;;;;;;;0.90;0.90;;;;;;;12.38;100.00;100882.38;5009717;28;20048;-77
2022/10/07 01:41:15;;;;;;;4.00;1.17;;;;;;;12.42;100.00;100876.44;5024694;28;20052;-78
2022/10/07 01:43:42;;;;;;;5.40;0.90;;;;;;;12.35;100.00;100856.63;5007101;28;20033;-77
2022/10/07 01:46:11;;;;;;;2.15;0.70;;;;;;;12.43;100.00;100869.19;5010719;28;20502;-77
2022/10/07 01:48:36;;;;;;;0.75;0.55;;;;;;;12.45;100.00;100875.22;4984567;28;20029;-79
2022/10/07 01:51:03;;;;;;;2.65;1.00;;;;;;;12.43;100.00;100866.47;5018773;28;20380;-77
2022/10/07 01:53:35;;;;;;;0.50;0.50;;;;;;;12.42;100.00;100862.94;5023067;28;20060;-78
2022/10/07 01:56:26;;;;;;;0.30;0.30;;;;;;;12.44;100.00;100874.41;5023057;28;20038;-78
2022/10/07 01:59:16;;;;;;;5.05;1.30;;;;;;;12.44;100.00;100865.47;5023378;28;20293;-78
2022/10/07 02:01:49;;;;;;;0.50;0.40;;;;;;;12.41;100.00;100855.03;5027295;28;20043;-77
2022/10/07 02:04:58;;;;;;;25.95;3.17;;;;;;;12.44;100.00;100849.28;5018751;28;20041;-77
2022/10/07 02:07:44;;;;;;;0.63;0.60;;;;;;;12.44;100.00;100850.13;5022347;28;20041;-77
2022/10/07 02:10:51;;;;;;;0.40;0.40;;;;;;;12.44;100.00;100841.19;5021341;28;20034;-77
2022/10/07 02:13:44;;;;;;;0.40;0.40;;;;;;;12.42;100.00;100827.88;5004497;28;20041;-76
2022/10/07 02:16:18;;;;;;;0.50;0.50;;;;;;;12.39;100.00;100806.69;5001214;28;20080;-77
2022/10/07 02:18:48;;;;;;;1.00;0.77;;;;;;;12.42;100.00;100805.50;5009169;28;20080;-76
2022/10/07 02:21:15;;;;;;;0.90;0.70;;;;;;;12.43;100.00;100802.59;5008262;28;20033;-77
2022/10/07 02:23:42;;;;;;;0.30;0.30;;;;;;;12.48;100.00;100792.06;5006108;28;20033;-76
2022/10/07 02:26:11;;;;;;;0.70;0.70;;;;;;;12.48;100.00;100785.84;5035809;28;20029;-77
2022/10/07 02:28:39;;;;;;;0.43;0.43;;;;;;;12.47;100.00;100793.13;5019595;28;20033;-78
2022/10/07 02:31:06;;;;;;;0.57;0.57;;;;;;;12.38;100.00;100779.91;5021113;28;20093;-77
2022/10/07 02:33:32;;;;;;;1.35;0.60;;;;;;;12.49;100.00;100792.91;5016100;28;20080;-77
2022/10/07 02:36:05;;;;;;;9.77;1.27;;;;;;;12.53;100.00;100783.44;4991989;28;20156;-78
2022/10/07 02:38:30;;;;;;;2.42;0.63;;;;;;;12.53;100.00;100778.88;5025163;28;20109;-77
2022/10/07 02:41:32;;;;;;;1.88;1.15;;;;;;;12.60;100.00;100784.34;5025343;28;20160;-77
2022/10/07 02:44:26;;;;;;;3.22;0.95;;;;;;;12.63;100.00;100777.75;4994112;28;20038;-76
2022/10/07 02:46:51;;;;;;;2.83;0.80;;;;;;;12.60;100.00;100756.56;5023825;28;20032;-77
2022/10/07 02:49:18;;;;;;;0.68;0.63;;;;;;;12.65;100.00;100760.34;5012079;28;21211;-78
2022/10/07 02:51:48;;;;;;;4.28;1.17;;;;;;;12.68;100.00;100770.75;5009192;28;20030;-77
2022/10/07 02:54:18;;;;;;;0.40;0.40;;;;;;;12.65;100.00;100754.09;4994533;28;20037;-76
2022/10/07 02:56:44;;;;;;;5.97;1.33;;;;;;;12.69;100.00;100767.03;5025089;28;20076;-79
2022/10/07 02:59:11;;;;;;;3.53;0.85;;;;;;;12.74;100.00;100758.38;5026739;28;20045;-77
2022/10/07 03:01:44;;;;;;;2.63;0.93;;;;;;;12.71;100.00;100750.66;5007471;28;20026;-78
2022/10/07 03:04:10;;;;;;;3.92;1.25;;;;;;;12.72;100.00;100734.28;5029630;28;20026;-77
2022/10/07 03:06:36;;;;;;;0.73;0.50;;;;;;;12.77;100.00;100739.09;5028365;28;20064;-77
2022/10/07 03:09:03;;;;;;;1.15;0.77;;;;;;;12.80;100.00;100741.41;5028285;28;20030;-77
2022/10/07 03:11:28;;;;;;;2.40;0.90;;;;;;;12.77;100.00;100731.84;5018287;28;20040;-77
2022/10/07 03:13:54;;;;;;;2.22;0.60;;;;;;;12.82;100.00;100733.13;5023248;28;20025;-78
2022/10/07 03:16:20;;;;;;;5.00;0.95;;;;;;;12.83;100.00;100740.19;5026291;28;20037;-77
2022/10/07 03:18:48;;;;;;;0.88;0.63;;;;;;;12.79;100.00;100734.34;5022097;28;20037;-76
2022/10/07 03:21:15;;;;;;;1.95;0.82;;;;;;;12.77;100.00;100731.00;4990730;28;20363;-77
2022/10/07 03:23:40;;;;;;;0.93;0.65;;;;;;;12.79;100.00;100734.34;5026214;28;20108;-77
2022/10/07 03:26:06;;;;;;;3.72;0.77;;;;;;;12.82;100.00;100727.75;5028341;28;20037;-78
2022/10/07 03:28:36;;;;;;;0.73;0.73;;;;;;;12.83;100.00;100734.81;5007498;28;20043;-77
2022/10/07 03:31:04;;;;;;;1.05;0.70;;;;;;;12.85;100.00;100738.16;5025437;28;20399;-76
2022/10/07 03:33:29;;;;;;;0.57;0.57;;;;;;;12.83;100.00;100730.22;5009130;28;20029;-77
2022/10/07 03:35:55;;;;;;;0.60;0.60;;;;;;;12.77;100.00;100728.31;5026813;28;20056;-77
2022/10/07 03:38:21;;;;;;;5.00;1.00;;;;;;;12.83;100.00;100727.53;4995296;28;20034;-77
2022/10/07 03:40:47;;;;;;;0.60;0.50;;;;;;;12.83;100.00;100732.94;5020802;28;20446;-77
2022/10/07 03:43:12;;;;;;;0.60;0.60;;;;;;;12.82;100.00;100722.34;5005318;28;20042;-76
2022/10/07 03:45:48;;;;;;;1.83;0.63;;;;;;;12.83;100.00;100702.41;5026027;28;20030;-75
2022/10/07 03:48:14;;;;;;;0.68;0.68;;;;;;;12.85;100.00;100706.59;5011727;28;20543;-75
2022/10/07 03:50:40;;;;;;;0.40;0.40;;;;;;;12.83;100.00;100714.03;5007248;28;20147;-76
2022/10/07 03:53:06;;;;;;;0.35;0.35;;;;;;;12.62;100.00;100681.66;4999852;28;20105;-77
2022/10/07 03:55:33;;;;;;;4.53;0.88;;;;;;;12.83;100.00;100697.03;5026731;28;20104;-75
2022/10/07 03:57:58;;;;;;;4.13;1.15;;;;;;;12.82;100.00;100700.75;4994364;28;20472;-75
2022/10/07 04:00:25;;;;;;;1.83;0.60;;;;;;;12.81;100.00;100693.69;5030388;28;20033;-75
2022/10/07 04:02:51;;;;;;;0.93;0.57;;;;;;;12.90;100.00;100698.75;5025603;28;20034;-73
2022/10/07 04:05:18;;;;;;;0.65;0.50;;;;;;;12.93;100.00;100698.38;5028306;28;20036;-75
2022/10/07 04:07:45;;;;;;;2.65;0.80;;;;;;;12.90;100.00;100695.22;5023191;28;20096;-75
2022/10/07 04:10:13;;;;;;;2.65;0.70;;;;;;;12.87;100.00;100698.31;5026633;28;20087;-74
2022/10/07 04:12:38;;;;;;;0.52;0.52;;;;;;;12.77;100.00;100696.75;5027330;28;20618;-75
2022/10/07 04:15:05;;;;;;;0.40;0.40;;;;;;;12.81;100.00;100709.88;5010565;28;20108;-75
2022/10/07 04:17:30;;;;;;;0.38;0.38;;;;;;;12.72;100.00;100693.81;5022605;28;20498;-76
2022/10/07 04:19:56;;;;;;;0.60;0.60;;;;;;;12.80;100.00;100703.63;5007983;28;20037;-76
2022/10/07 04:22:23;;;;;;;1.55;0.50;;;;;;;12.73;100.00;100703.59;5023604;28;20390;-76
2022/10/07 04:25:32;;;;;;;0.40;0.40;;;;;;;12.73;100.00;100698.19;4989331;28;20104;-76
2022/10/07 04:27:35;;;;;;;1.48;0.60;;;;;;;12.77;100.00;100710.25;5018307;28;20494;-76
2022/10/07 04:30:02;;;;;;;0.45;0.45;;;;;;;12.80;100.00;100714.44;5025358;28;20049;-77
2022/10/07 04:32:27;;;;;;;0.40;0.40;;;;;;;12.80;100.00;100697.41;5022983;28;20044;-76
2022/10/07 04:34:53;;;;;;;0.40;0.40;;;;;;;12.81;100.00;100701.78;4991803;28;20037;-76
2022/10/07 04:37:19;;;;;;;0.70;0.70;;;;;;;12.80;100.00;100702.81;5027379;28;20111;-75
2022/10/07 04:39:44;;;;;;;2.92;0.93;;;;;;;12.71;100.00;100684.03;5029234;28;20521;-76
2022/10/07 04:43:17;;;;;;;2.15;0.80;;;;;;;12.72;100.00;100691.09;5006546;28;20033;-78
2022/10/07 04:44:55;;;;;;;1.00;0.70;;;;;;;12.83;100.00;100705.94;5026190;28;20044;-76
2022/10/07 04:47:21;;;;;;;1.52;0.68;;;;;;;12.78;100.00;100700.31;4994817;28;20398;-75
2022/10/07 04:49:47;;;;;;;0.60;0.60;;;;;;;12.79;100.00;100720.03;5021180;28;20395;-76
2022/10/07 04:52:13;;;;;;;1.40;0.50;;;;;;;12.73;100.00;100703.59;5024966;28;20021;-77
2022/10/07 04:54:38;;;;;;;4.22;0.80;;;;;;;12.71;100.00;100699.41;5022374;28;20045;-78
2022/10/07 04:57:04;;;;;;;0.40;0.40;;;;;;;12.76;100.00;100708.59;5007884;28;20533;-76
2022/10/07 04:59:30;;;;;;;0.30;0.30;;;;;;;12.77;100.00;100704.03;5008659;28;20041;-77
2022/10/07 05:01:56;;;;;;;0.65;0.65;;;;;;;12.76;100.00;100692.41;4994890;28;20120;-80
2022/10/07 05:04:24;;;;;;;0.50;0.50;;;;;;;12.70;100.00;100703.09;5003485;28;20482;-78
2022/10/07 05:06:49;;;;;;;0.40;0.40;;;;;;;12.58;100.00;100710.88;5025156;28;20179;-77
2022/10/07 05:09:15;;;;;;;1.05;0.80;;;;;;;12.48;100.00;100689.59;5025665;28;20037;-78
2022/10/07 05:11:41;;;;;;;0.98;0.60;;;;;;;12.43;100.00;100697.41;5025293;28;20367;-77
2022/10/07 05:14:06;;;;;;;0.43;0.43;;;;;;;12.40;100.00;100697.81;4995979;28;20140;-78
2022/10/07 05:16:32;;;;;;;0.50;0.50;;;;;;;12.34;100.00;100708.53;5039591;28;20045;-78
2022/10/07 05:18:57;;;;;;;1.73;0.60;;;;;;;12.27;100.00;100711.94;4996538;28;20045;-77
2022/10/07 05:21:23;;;;;;;1.65;0.57;;;;;;;12.16;100.00;100712.44;5024531;28;20033;-76
2022/10/07 05:23:49;;;;;;;0.30;0.30;;;;;;;12.10;100.00;100718.59;5006841;28;20049;-77
2022/10/07 05:26:14;;;;;;;0.40;0.40;;;;;;;11.95;100.00;100725.84;5023868;28;20041;-77
2022/10/07 05:28:41;;;;;;;0.40;0.40;;;;;;;11.82;100.00;100719.19;4990158;28;20041;-78
2022/10/07 05:31:08;;;;;;;0.40;0.40;;;;;;;11.80;100.00;100721.25;5027328;28;20191;-76
2022/10/07 05:33:35;;;;;;;0.50;0.50;;;;;;;11.72;100.00;100725.88;5006155;28;20042;-78
2022/10/07 05:36:00;;;;;;;0.52;0.52;;;;;;;11.74;100.00;100729.22;4995002;28;20034;-78
2022/10/07 05:38:27;;;;;;;0.35;0.35;;;;;;;11.65;100.00;100723.09;4995968;28;20024;-77
2022/10/07 05:41:01;;;;;;;0.30;0.30;;;;;;;11.58;100.00;100719.44;5011024;28;20063;-77
2022/10/07 05:43:28;;;;;;;0.32;0.32;;;;;;;11.49;100.00;100710.63;5016295;28;20124;-78
2022/10/07 05:46:02;;;;;;;0.30;0.30;;;;;;;11.46;100.00;100716.38;5024902;28;20037;-77
2022/10/07 05:48:29;;;;;;;0.40;0.40;;;;;;;11.37;100.00;100723.66;5014211;28;20038;-77
2022/10/07 05:50:56;;;;;;;0.30;0.30;;;;;;;11.31;100.00;100715.50;4992582;28;20041;-77
2022/10/07 05:53:23;;;;;;;0.50;0.50;;;;;;;11.28;100.00;100719.38;5019999;28;20038;-78
2022/10/07 05:55:50;;;;;;;0.30;0.30;;;;;;;11.23;100.00;100722.63;5019798;28;20041;-77
2022/10/07 05:58:16;;;;;;;0.40;0.40;;;;;;;11.26;100.00;100723.28;5006820;28;20029;-77
2022/10/07 06:00:54;;;;;;;0.30;0.30;;;;;;;11.23;100.00;100727.16;5016822;28;20116;-78
2022/10/07 06:03:20;;;;;;;0.30;0.30;;;;;;;11.28;100.00;100730.16;5010017;28;21964;-77
2022/10/07 06:05:49;;;;;;;0.30;0.30;;;;;;;11.20;100.00;100714.06;5021789;28;20120;-77
2022/10/07 06:08:17;;;;;;;0.40;0.40;;;;;;;11.20;100.00;100727.53;5029272;28;20042;-77
2022/10/07 06:13:28;;;;;;;0.40;0.40;;;;;;;11.08;100.00;100726.28;5017429;28;20049;-78
2022/10/07 06:15:53;;;;;;;0.40;0.40;;;;;;;11.15;100.00;100733.44;5033418;28;20081;-78
2022/10/07 06:18:19;;;;;;;0.43;0.43;;;;;;;11.21;100.00;100739.97;5009540;28;20084;-77
2022/10/07 06:20:55;;;;;;;0.30;0.30;;;;;;;11.21;100.00;100737.28;4994565;28;20463;-78
2022/10/07 06:23:21;;;;;;;0.40;0.40;;;;;;;11.23;100.00;100732.56;5026597;28;20156;-78
2022/10/07 06:25:54;;;;;;;0.40;0.40;;;;;;;11.27;100.00;100744.59;5003023;28;20108;-77
2022/10/07 06:28:20;;;;;;;0.95;0.95;;;;;;;11.23;100.00;100738.75;5009566;28;20041;-78
2022/10/07 06:30:46;;;;;;;0.35;0.35;;;;;;;11.17;100.00;100730.59;5025109;28;20714;-77
2022/10/07 06:33:12;;;;;;;0.30;0.30;;;;;;;11.08;100.00;100735.19;5026976;28;20485;-76
2022/10/07 06:35:37;;;;;;;0.30;0.30;;;;;;;11.08;100.00;100735.19;5004899;28;20037;-77
2022/10/07 06:38:04;;;;;;;0.40;0.40;;;;;;;11.12;100.00;100736.50;5018404;28;20036;-78
2022/10/07 06:40:30;;;;;;;0.30;0.30;;;;;;;11.20;100.00;100736.44;5026581;28;20052;-78
2022/10/07 06:42:56;;;;;;;0.40;0.40;;;;;;;11.28;100.00;100745.47;5016593;28;20499;-77
2022/10/07 06:45:22;;;;;;;0.30;0.30;;;;;;;11.24;100.00;100750.34;4992301;28;20120;-77
2022/10/07 06:47:48;;;;;;;0.40;0.40;;;;;;;11.17;100.00;100755.63;5008008;28;20040;-77
2022/10/07 06:50:14;;;;;;;0.30;0.30;;;;;;;11.16;100.00;100761.19;5000264;28;20037;-78
2022/10/07 06:52:40;;;;;;;0.40;0.40;;;;;;;11.11;100.00;100760.88;5025309;28;20542;-77
2022/10/07 06:55:06;;;;;;;0.40;0.40;;;;;;;11.08;100.00;100751.31;5022936;28;20067;-78
2022/10/07 06:57:32;;;;;;;0.32;0.32;;;;;;;11.06;100.00;100771.34;5028797;28;20132;-77
2022/10/07 07:00:00;;;;;;;0.30;0.30;;;;;;;11.01;100.00;100777.28;5001069;28;20120;-77
2022/10/07 07:02:29;;;;;;;0.40;0.40;;;;;;;10.98;100.00;100773.09;5016666;28;20048;-78
2022/10/07 07:04:56;;;;;;;0.38;0.38;;;;;;;10.84;100.00;100783.78;5019959;28;20029;-78
2022/10/07 07:07:23;;;;;;;0.40;0.40;;;;;;;10.65;100.00;100771.59;5029281;28;20036;-78
2022/10/07 07:09:49;;;;;;;0.40;0.40;;;;;;;10.49;100.00;100767.16;5022841;28;20022;-78
2022/10/07 07:12:15;;;;;;;0.40;0.40;;;;;;;10.31;100.00;100770.91;4995330;28;20056;-75
2022/10/07 07:14:43;;;;;;;0.40;0.40;;;;;;;10.21;100.00;100780.16;4989370;28;20033;-76
2022/10/07 07:17:12;;;;;;;0.40;0.40;;;;;;;10.03;100.00;100757.03;5024851;28;20128;-76
2022/10/07 07:19:38;;;;;;;0.38;0.38;;;;;;;10.12;100.00;100780.16;5017175;28;20036;-77
2022/10/07 07:22:05;;;;;;;0.40;0.40;;;;;;;10.04;100.00;100777.50;5026058;28;20215;-75
2022/10/07 07:24:31;;;;;;;0.40;0.40;;;;;;;9.94;100.00;100771.50;5019580;28;20054;-76
2022/10/07 07:26:57;;;;;;;0.30;0.30;;;;;;;9.84;100.00;100766.31;5020947;28;20033;-77
2022/10/07 07:29:23;;;;;;;3.95;1.42;;;;;;;9.81;100.00;100763.13;5008442;28;20033;-75
2022/10/07 07:31:49;;;;;;;0.40;0.40;;;;;;;9.85;100.00;100775.22;5010998;28;20044;-75
2022/10/07 07:34:15;;;;;;;0.50;0.50;;;;;;;9.88;100.00;100793.66;5004188;28;20038;-76
2022/10/07 07:36:49;;;;;;;0.35;0.35;;;;;;;10.07;100.00;100787.91;5022378;28;20451;-77
2022/10/07 07:39:16;;;;;;;0.40;0.40;;;;;;;10.38;100.00;100802.47;5016918;28;20467;-76
2022/10/07 07:41:49;;;;;;;0.40;0.40;;;;;;;10.60;100.00;100798.19;5015704;28;20306;-76
2022/10/07 07:44:17;;;;;;;0.40;0.40;;;;;;;10.73;100.00;100801.16;5021702;28;20041;-75
2022/10/07 07:46:47;;;;;;;0.40;0.40;;;;;;;10.77;100.00;100807.88;5004782;28;20326;-77
2022/10/07 07:49:13;;;;;;;0.40;0.40;;;;;;;10.73;100.00;100803.84;5024766;28;20049;-76
2022/10/07 07:51:41;;;;;;;0.40;0.40;;;;;;;10.80;100.00;100807.50;5002383;28;20171;-78
2022/10/07 07:54:08;;;;;;;0.40;0.40;;;;;;;10.89;100.00;100805.59;4992764;28;20458;-77
2022/10/07 07:56:34;;;;;;;0.47;0.47;;;;;;;11.00;100.00;100805.19;4984221;28;20044;-77
2022/10/07 07:59:01;;;;;;;0.50;0.50;;;;;;;11.42;100.00;100817.34;5025796;28;20483;-77
2022/10/07 08:01:30;;;;;;;0.50;0.50;;;;;;;12.01;100.00;100814.00;5009645;28;20068;-76
2022/10/07 08:03:59;;;;;;;0.45;0.45;;;;;;;12.29;100.00;100825.84;5021875;28;20064;-78
2022/10/07 08:06:26;;;;;;;0.30;0.30;;;;;;;12.00;100.00;100829.34;5005290;28;20068;-77
2022/10/07 08:08:57;;;;;;;0.30;0.30;;;;;;;11.66;100.00;100837.88;5024827;28;20037;-77
2022/10/07 08:11:23;;;;;;;0.82;0.82;;;;;;;11.46;100.00;100856.38;4996762;28;20043;-77
2022/10/07 08:13:50;;;;;;;0.50;0.50;;;;;;;11.34;100.00;100864.03;5005759;28;20108;-77
2022/10/07 08:16:18;;;;;;;0.50;0.50;;;;;;;11.22;100.00;100854.69;5013554;28;20041;-76
2022/10/07 08:18:46;;;;;;;0.50;0.50;;;;;;;11.09;100.00;100832.91;5014410;28;20034;-76
2022/10/07 08:21:12;;;;;;;3.30;0.85;;;;;;;11.13;100.00;100807.31;5025728;28;20056;-78
2022/10/07 08:23:38;;;;;;;0.70;0.70;;;;;;;11.11;100.00;100829.00;5008159;28;20050;-78
2022/10/07 08:26:05;;;;;;;0.50;0.50;;;;;;;11.16;100.00;100828.47;5021725;28;20072;-78
2022/10/07 08:28:31;;;;;;;0.50;0.50;;;;;;;11.31;100.00;100850.91;5021920;28;20034;-81
2022/10/07 08:31:05;;;;;;;2.90;0.80;;;;;;;11.33;100.00;100850.75;5029594;28;20041;-76
2022/10/07 08:33:33;;;;;;;17.08;1.55;;;;;;;11.54;100.00;100848.25;5010675;28;20022;-78
2022/10/07 08:36:00;;;;;;;2.95;1.30;;;;;;;11.58;100.00;100828.00;5026793;28;20033;-83
2022/10/07 08:38:31;;;;;;;4.43;1.15;;;;;;;11.84;100.00;100843.78;4995121;28;20069;-84
2022/10/07 08:41:08;;;;;;;4.15;1.50;;;;;;;12.35;100.00;100835.03;4990734;28;20069;-79
2022/10/07 08:43:43;;;;;;;5.60;1.20;;;;;;;13.53;100.00;100834.00;5003096;28;20112;-80
2022/10/07 08:46:13;;;;;;;8.02;1.58;;;;;;;13.18;100.00;100841.09;4986767;28;20599;-79
2022/10/07 08:48:39;;;;;;;6.88;2.13;;;;;;;14.39;100.00;100832.97;5002693;28;20116;-79
2022/10/07 08:51:18;;;;;;;9.13;2.00;;;;;;;16.02;96.15;100844.75;5002268;28;20125;-81
2022/10/07 08:53:47;;;;;;;6.82;1.60;;;;;;;17.02;90.71;100849.94;5022900;28;20034;-79
2022/10/07 08:56:15;;;;;;;10.55;2.05;;;;;;;18.04;85.42;100858.06;5016482;28;20057;-79
2022/10/07 08:59:05;;;;;;;11.15;2.15;;;;;;;18.83;81.09;100867.34;5020135;28;20367;-79
2022/10/07 09:01:54;;;;;;;8.85;1.83;;;;;;;19.47;77.79;100865.84;5021325;28;20038;-80
2022/10/07 09:04:44;;;;;;;8.82;2.10;;;;;;;20.38;74.98;100871.16;5022879;28;20490;-81
2022/10/07 09:07:17;;;;;;;9.60;1.80;;;;;;;21.50;71.65;100870.78;5006471;28;20041;-80
2022/10/07 09:09:54;;;;;;;7.22;2.38;;;;;;;21.57;69.81;100867.91;5003184;28;20494;-80
2022/10/07 09:12:37;;;;;;;7.78;1.80;;;;;;;19.07;79.19;100877.31;5024664;28;20041;-81
2022/10/07 09:15:05;;;;;;;8.63;2.08;;;;;;;17.71;85.65;100870.84;5022995;28;20467;-79
2022/10/07 09:17:41;;;;;;;13.40;2.50;;;;;;;17.01;90.53;100873.53;5023393;28;20124;-79
2022/10/07 09:20:19;;;;;;;6.65;1.90;;;;;;;17.31;89.25;100870.28;5006786;28;20036;-78
2022/10/07 09:22:56;;;;;;;8.35;1.85;;;;;;;17.52;88.37;100877.28;5028451;28;20495;-79
2022/10/07 09:25:27;;;;;;;8.60;2.28;;;;;;;17.78;85.52;100881.69;5013215;28;20030;-77
2022/10/07 09:27:53;;;;;;;7.28;2.50;;;;;;;19.30;77.77;100878.50;5012653;28;20030;-80
2022/10/07 09:30:23;;;;;;;7.10;1.77;;;;;;;19.53;75.55;100877.75;5021949;28;20026;-80
2022/10/07 09:32:53;;;;;;;7.15;2.47;;;;;;;20.33;71.54;100876.50;5016109;28;20060;-79
2022/10/07 09:35:24;;;;;;;10.48;2.35;;;;;;;20.79;69.41;100874.81;4997270;28;20029;-79
2022/10/07 09:37:53;;;;;;;11.98;2.50;;;;;;;21.30;70.17;100878.56;4993963;28;20565;-79
2022/10/07 09:41:13;;;;;;;12.70;1.95;;;;;;;21.68;66.97;100882.59;5024948;28;20116;-79
2022/10/07 09:43:23;;;;;;;8.98;2.08;;;;;;;21.69;66.25;100873.28;5025800;28;20057;-78
2022/10/07 09:45:49;;;;;;;9.30;2.25;;;;;;;21.72;64.21;100883.75;5026836;28;20354;-78
2022/10/07 09:48:21;;;;;;;7.70;2.17;;;;;;;21.82;64.57;100886.66;4988240;28;20072;-79
2022/10/07 09:50:46;;;;;;;9.73;2.42;;;;;;;21.97;64.78;100882.53;5017029;28;20043;-79
2022/10/07 09:53:29;;;;;;;7.53;1.80;;;;;;;22.31;64.26;100897.09;5023840;28;20026;-79
2022/10/07 09:55:55;;;;;;;9.68;1.95;;;;;;;22.42;62.25;100887.09;5023030;28;20394;-78
2022/10/07 09:58:28;;;;;;;9.85;2.00;;;;;;;22.57;61.64;100887.28;5013308;28;20049;-80
2022/10/07 10:00:56;;;;;;;10.02;2.55;;;;;;;22.01;60.06;100889.97;5004333;28;20112;-79
2022/10/07 10:03:31;;;;;;;11.20;2.60;;;;;;;22.24;61.39;100897.22;4992160;28;20060;-79
2022/10/07 10:06:02;;;;;;;12.75;2.45;;;;;;;22.53;61.47;100895.22;5006097;28;20042;-79
2022/10/07 10:08:36;;;;;;;4.95;1.25;;;;;;;22.90;54.81;100899.28;5023549;28;20029;-78
2022/10/07 10:11:27;;;;;;;9.35;2.13;;;;;;;23.27;57.00;100896.72;4985993;28;20068;-81
2022/10/07 10:13:53;;;;;;;9.10;2.03;;;;;;;23.74;57.56;100909.03;5018031;28;20119;-81
2022/10/07 10:16:24;;;;;;;9.80;1.88;;;;;;;20.52;62.27;100908.06;5006432;28;20117;-80
2022/10/07 10:19:24;;;;;;;4.35;1.70;;;;;;;18.02;68.90;100907.28;5022711;28;20040;-79
2022/10/07 10:21:57;;;;;;;8.77;1.35;;;;;;;16.30;73.91;100912.34;5002440;28;20033;-80
2022/10/07 10:27:18;;;;;;;11.07;1.92;;;;;;;15.72;77.04;100896.69;5016032;28;20037;-79
2022/10/07 10:29:49;;;;;;;7.50;1.58;;;;;;;15.42;78.92;100898.03;4990979;28;20386;-80
2022/10/07 10:32:40;;;;;;;7.68;1.67;;;;;;;15.39;76.70;100902.81;5025379;28;20037;-80
2022/10/07 10:35:25;;;;;;;8.18;1.77;;;;;;;15.27;80.05;100879.22;5005878;28;20079;-79
2022/10/07 10:38:14;;;;;;;6.40;1.27;;;;;;;15.79;84.15;100904.78;5007988;28;20113;-79
2022/10/07 10:40:45;;;;;;;6.72;1.55;;;;;;;16.67;82.60;100891.81;5002086;28;20065;-79
2022/10/07 10:44:00;;;;;;;10.90;1.80;;;;;;;17.13;84.47;100901.72;5008884;28;20095;-78
2022/10/07 10:46:42;;;;;;;8.60;2.13;;;;;;;19.39;78.73;100892.63;5027348;28;20045;-80
2022/10/07 10:49:18;;;;;;;9.00;2.42;;;;;;;19.84;70.00;100871.22;5010362;28;20285;-82
2022/10/07 10:52:02;;;;;;;13.65;2.03;;;;;;;20.15;70.73;100900.09;4986465;28;20038;-79
2022/10/07 10:54:43;;;;;;;6.72;1.85;;;;;;;21.64;63.27;100892.34;5019514;28;20033;-79
2022/10/07 10:57:36;;;;;;;8.32;1.80;;;;;;;23.02;62.70;100900.84;5006123;28;20033;-81
2022/10/07 11:00:15;;;;;;;10.18;2.28;;;;;;;23.60;51.00;100898.44;5008547;28;20048;-79
2022/10/07 11:03:05;;;;;;;8.57;3.05;;;;;;;23.83;49.59;100878.09;4991949;28;20039;-80
2022/10/07 11:05:36;;;;;;;9.77;2.40;;;;;;;21.70;55.04;100889.47;5010719;28;20095;-79
2022/10/07 11:08:30;;;;;;;8.50;1.83;;;;;;;20.77;51.43;100904.25;5027308;28;20032;-79
2022/10/07 11:10:59;;;;;;;6.10;1.70;;;;;;;22.07;48.68;100919.13;5025185;28;20030;-79
2022/10/07 11:13:51;;;;;;;7.13;1.75;;;;;;;22.20;45.62;100915.22;5024127;28;20037;-80
2022/10/07 11:16:22;;;;;;;8.48;1.70;;;;;;;19.30;50.05;100909.31;5023776;28;20038;-79
2022/10/07 11:19:00;;;;;;;9.90;1.60;;;;;;;17.42;55.84;100913.06;5029821;28;20037;-80
2022/10/07 11:21:36;;;;;;;6.85;1.83;;;;;;;18.57;54.27;100928.34;5024626;28;20119;-80
2022/10/07 11:24:27;;;;;;;6.22;1.45;;;;;;;16.97;60.42;100923.94;5025700;28;20395;-80
2022/10/07 11:26:57;;;;;;;6.93;1.52;;;;;;;14.83;79.64;100946.31;5009081;28;20120;-79
2022/10/07 11:29:39;;;;;;;5.57;2.55;;;;;;;13.35;91.31;100947.88;5026433;28;20541;-79
2022/10/07 11:32:13;;;;;;;3.80;0.93;;;;;;;12.38;98.27;100937.13;5011147;28;20044;-81
2022/10/07 11:34:48;;;;;;;;;;;;;;;12.02;100.00;100953.16;5007914;28;20100;-78
2022/10/07 11:37:20;;;;;;;4.55;1.05;;;;;;;11.84;100.00;100945.31;5024684;28;19940;-78
2022/10/07 11:39:46;;;;;;;5.65;1.00;;;;;;;11.92;100.00;100947.16;5028190;28;20033;-82
2022/10/07 11:42:12;;;;;;;7.63;1.40;;;;;;;12.17;100.00;100934.31;5005794;28;20038;-79
2022/10/07 11:44:51;;;;;;;6.43;1.42;;;;;;;12.85;100.00;100943.22;5009712;28;20394;-80